sensor_id;sensor_type;location;lat;lon;timestamp;P1;durP1;ratioP1;P2;durP2;ratioP2
14975;SDS011;7584;60.468;25.126;2023-07-13T00:01:57;4.40;;;2.80;;
14975;SDS011;7584;60.468;25.126;2023-07-13T00:04:23;5.20;;;3.07;;
14975;SDS011;7584;60.468;25.126;2023-07-13T00:06:50;5.00;;;3.30;;
14975;SDS011;7584;60.468;25.126;2023-07-13T00:09:16;4.77;;;3.10;;
14975;SDS011;7584;60.468;25.126;2023-07-13T00:11:42;3.53;;;2.90;;
14975;SDS011;7584;60.468;25.126;2023-07-13T00:14:08;3.43;;;2.70;;
14975;SDS011;7584;60.468;25.126;2023-07-13T00:16:34;3.93;;;2.73;;
14975;SDS011;7584;60.468;25.126;2023-07-13T00:19:00;4.90;;;2.87;;
14975;SDS011;7584;60.468;25.126;2023-07-13T00:21:26;5.50;;;3.53;;
14975;SDS011;7584;60.468;25.126;2023-07-13T00:23:51;5.87;;;2.90;;
14975;SDS011;7584;60.468;25.126;2023-07-13T00:26:17;7.70;;;2.80;;
14975;SDS011;7584;60.468;25.126;2023-07-13T00:28:42;4.60;;;2.70;;
14975;SDS011;7584;60.468;25.126;2023-07-13T00:31:09;3.47;;;2.90;;
14975;SDS011;7584;60.468;25.126;2023-07-13T00:33:34;6.57;;;2.93;;
14975;SDS011;7584;60.468;25.126;2023-07-13T00:36:00;3.50;;;2.60;;
14975;SDS011;7584;60.468;25.126;2023-07-13T00:38:26;4.13;;;2.80;;
14975;SDS011;7584;60.468;25.126;2023-07-13T00:40:51;6.23;;;3.77;;
14975;SDS011;7584;60.468;25.126;2023-07-13T00:43:18;5.17;;;3.47;;
14975;SDS011;7584;60.468;25.126;2023-07-13T00:48:09;5.30;;;2.93;;
14975;SDS011;7584;60.468;25.126;2023-07-13T00:50:35;4.37;;;3.23;;
14975;SDS011;7584;60.468;25.126;2023-07-13T00:53:01;4.23;;;3.10;;
14975;SDS011;7584;60.468;25.126;2023-07-13T00:55:27;3.80;;;2.60;;
14975;SDS011;7584;60.468;25.126;2023-07-13T00:57:52;4.33;;;2.87;;
14975;SDS011;7584;60.468;25.126;2023-07-13T01:00:18;5.13;;;3.10;;
14975;SDS011;7584;60.468;25.126;2023-07-13T01:02:45;4.40;;;3.33;;
14975;SDS011;7584;60.468;25.126;2023-07-13T01:05:12;4.30;;;2.83;;
14975;SDS011;7584;60.468;25.126;2023-07-13T01:07:39;4.50;;;3.40;;
14975;SDS011;7584;60.468;25.126;2023-07-13T01:10:05;4.13;;;2.90;;
14975;SDS011;7584;60.468;25.126;2023-07-13T01:12:30;4.77;;;3.10;;
14975;SDS011;7584;60.468;25.126;2023-07-13T01:14:56;5.33;;;3.50;;
14975;SDS011;7584;60.468;25.126;2023-07-13T01:17:22;3.57;;;2.93;;
14975;SDS011;7584;60.468;25.126;2023-07-13T01:19:47;7.50;;;3.67;;
14975;SDS011;7584;60.468;25.126;2023-07-13T01:22:14;7.00;;;3.20;;
14975;SDS011;7584;60.468;25.126;2023-07-13T01:24:40;5.20;;;3.27;;
14975;SDS011;7584;60.468;25.126;2023-07-13T01:27:07;6.63;;;3.23;;
14975;SDS011;7584;60.468;25.126;2023-07-13T01:29:33;7.37;;;3.90;;
14975;SDS011;7584;60.468;25.126;2023-07-13T01:31:59;5.33;;;3.13;;
14975;SDS011;7584;60.468;25.126;2023-07-13T01:34:25;5.37;;;2.83;;
14975;SDS011;7584;60.468;25.126;2023-07-13T01:36:50;5.50;;;3.33;;
14975;SDS011;7584;60.468;25.126;2023-07-13T01:39:20;5.57;;;3.03;;
14975;SDS011;7584;60.468;25.126;2023-07-13T01:41:45;4.80;;;2.90;;
14975;SDS011;7584;60.468;25.126;2023-07-13T01:44:10;6.23;;;3.43;;
14975;SDS011;7584;60.468;25.126;2023-07-13T01:46:36;8.80;;;3.40;;
14975;SDS011;7584;60.468;25.126;2023-07-13T01:49:01;7.53;;;3.10;;
14975;SDS011;7584;60.468;25.126;2023-07-13T01:51:27;7.03;;;2.93;;
14975;SDS011;7584;60.468;25.126;2023-07-13T01:53:52;4.23;;;3.10;;
14975;SDS011;7584;60.468;25.126;2023-07-13T01:56:18;4.97;;;3.33;;
14975;SDS011;7584;60.468;25.126;2023-07-13T01:58:44;6.47;;;3.27;;
14975;SDS011;7584;60.468;25.126;2023-07-13T02:01:09;5.77;;;3.40;;
14975;SDS011;7584;60.468;25.126;2023-07-13T02:03:35;5.27;;;3.17;;
14975;SDS011;7584;60.468;25.126;2023-07-13T02:06:00;4.57;;;3.10;;
14975;SDS011;7584;60.468;25.126;2023-07-13T02:08:25;4.60;;;2.97;;
14975;SDS011;7584;60.468;25.126;2023-07-13T02:10:51;3.80;;;3.20;;
14975;SDS011;7584;60.468;25.126;2023-07-13T02:13:16;3.57;;;2.70;;
14975;SDS011;7584;60.468;25.126;2023-07-13T02:15:41;4.37;;;3.07;;
14975;SDS011;7584;60.468;25.126;2023-07-13T02:18:07;3.83;;;3.03;;
14975;SDS011;7584;60.468;25.126;2023-07-13T02:20:32;7.00;;;3.57;;
14975;SDS011;7584;60.468;25.126;2023-07-13T02:22:57;4.47;;;3.13;;
14975;SDS011;7584;60.468;25.126;2023-07-13T02:25:23;3.73;;;2.80;;
14975;SDS011;7584;60.468;25.126;2023-07-13T02:27:50;4.07;;;3.03;;
14975;SDS011;7584;60.468;25.126;2023-07-13T02:30:15;7.80;;;3.67;;
14975;SDS011;7584;60.468;25.126;2023-07-13T02:32:40;5.80;;;3.40;;
14975;SDS011;7584;60.468;25.126;2023-07-13T02:35:06;4.27;;;3.20;;
14975;SDS011;7584;60.468;25.126;2023-07-13T02:37:31;5.10;;;3.37;;
14975;SDS011;7584;60.468;25.126;2023-07-13T02:39:56;5.53;;;3.33;;
14975;SDS011;7584;60.468;25.126;2023-07-13T02:42:22;7.40;;;3.70;;
14975;SDS011;7584;60.468;25.126;2023-07-13T02:44:47;3.70;;;3.20;;
14975;SDS011;7584;60.468;25.126;2023-07-13T02:47:14;4.77;;;3.47;;
14975;SDS011;7584;60.468;25.126;2023-07-13T02:49:40;4.80;;;3.30;;
14975;SDS011;7584;60.468;25.126;2023-07-13T02:52:05;3.47;;;2.77;;
14975;SDS011;7584;60.468;25.126;2023-07-13T02:54:31;3.20;;;2.90;;
14975;SDS011;7584;60.468;25.126;2023-07-13T02:56:56;3.47;;;2.80;;
14975;SDS011;7584;60.468;25.126;2023-07-13T02:59:22;4.17;;;3.33;;
14975;SDS011;7584;60.468;25.126;2023-07-13T03:01:47;4.03;;;3.10;;
14975;SDS011;7584;60.468;25.126;2023-07-13T03:04:12;4.00;;;3.00;;
14975;SDS011;7584;60.468;25.126;2023-07-13T03:06:38;3.77;;;3.00;;
14975;SDS011;7584;60.468;25.126;2023-07-13T03:09:03;3.97;;;2.90;;
14975;SDS011;7584;60.468;25.126;2023-07-13T03:11:28;5.30;;;3.03;;
14975;SDS011;7584;60.468;25.126;2023-07-13T03:13:54;5.87;;;3.60;;
14975;SDS011;7584;60.468;25.126;2023-07-13T03:16:19;4.07;;;3.20;;
14975;SDS011;7584;60.468;25.126;2023-07-13T03:18:45;5.17;;;3.37;;
14975;SDS011;7584;60.468;25.126;2023-07-13T03:21:11;6.77;;;3.50;;
14975;SDS011;7584;60.468;25.126;2023-07-13T03:23:36;4.13;;;3.07;;
14975;SDS011;7584;60.468;25.126;2023-07-13T03:26:06;5.23;;;3.07;;
14975;SDS011;7584;60.468;25.126;2023-07-13T03:28:32;4.50;;;3.20;;
14975;SDS011;7584;60.468;25.126;2023-07-13T03:31:01;12.20;;;3.50;;
14975;SDS011;7584;60.468;25.126;2023-07-13T03:33:26;4.07;;;3.23;;
14975;SDS011;7584;60.468;25.126;2023-07-13T03:35:51;6.73;;;3.10;;
14975;SDS011;7584;60.468;25.126;2023-07-13T03:38:17;3.90;;;3.50;;
14975;SDS011;7584;60.468;25.126;2023-07-13T03:40:42;6.37;;;3.20;;
14975;SDS011;7584;60.468;25.126;2023-07-13T03:43:07;3.90;;;3.33;;
14975;SDS011;7584;60.468;25.126;2023-07-13T03:45:33;6.00;;;3.37;;
14975;SDS011;7584;60.468;25.126;2023-07-13T03:47:58;5.63;;;3.27;;
14975;SDS011;7584;60.468;25.126;2023-07-13T03:50:23;4.97;;;3.80;;
14975;SDS011;7584;60.468;25.126;2023-07-13T03:52:48;3.87;;;3.47;;
14975;SDS011;7584;60.468;25.126;2023-07-13T03:55:14;4.70;;;3.90;;
14975;SDS011;7584;60.468;25.126;2023-07-13T03:57:39;6.43;;;3.93;;
14975;SDS011;7584;60.468;25.126;2023-07-13T04:00:04;7.90;;;4.07;;
14975;SDS011;7584;60.468;25.126;2023-07-13T04:02:31;4.77;;;3.60;;
14975;SDS011;7584;60.468;25.126;2023-07-13T04:04:56;4.37;;;3.60;;
14975;SDS011;7584;60.468;25.126;2023-07-13T04:07:21;5.00;;;3.90;;
14975;SDS011;7584;60.468;25.126;2023-07-13T04:09:46;5.63;;;3.40;;
14975;SDS011;7584;60.468;25.126;2023-07-13T04:12:12;6.23;;;4.20;;
14975;SDS011;7584;60.468;25.126;2023-07-13T04:14:37;7.67;;;4.10;;
14975;SDS011;7584;60.468;25.126;2023-07-13T04:17:02;4.53;;;3.87;;
14975;SDS011;7584;60.468;25.126;2023-07-13T04:19:28;4.47;;;4.07;;
14975;SDS011;7584;60.468;25.126;2023-07-13T04:21:53;5.37;;;3.80;;
14975;SDS011;7584;60.468;25.126;2023-07-13T04:24:18;7.70;;;4.33;;
14975;SDS011;7584;60.468;25.126;2023-07-13T04:26:44;5.17;;;3.70;;
14975;SDS011;7584;60.468;25.126;2023-07-13T04:29:09;4.97;;;3.85;;
14975;SDS011;7584;60.468;25.126;2023-07-13T04:31:34;9.02;;;3.90;;
14975;SDS011;7584;60.468;25.126;2023-07-13T04:34:00;4.45;;;3.63;;
14975;SDS011;7584;60.468;25.126;2023-07-13T04:36:25;5.47;;;3.40;;
14975;SDS011;7584;60.468;25.126;2023-07-13T04:38:54;3.63;;;3.17;;
14975;SDS011;7584;60.468;25.126;2023-07-13T04:41:19;5.88;;;3.20;;
14975;SDS011;7584;60.468;25.126;2023-07-13T04:43:45;3.53;;;2.55;;
14975;SDS011;7584;60.468;25.126;2023-07-13T04:46:11;3.80;;;2.67;;
14975;SDS011;7584;60.468;25.126;2023-07-13T04:48:37;4.25;;;2.70;;
14975;SDS011;7584;60.468;25.126;2023-07-13T04:51:02;8.90;;;3.00;;
14975;SDS011;7584;60.468;25.126;2023-07-13T04:53:27;4.63;;;2.65;;
14975;SDS011;7584;60.468;25.126;2023-07-13T04:55:53;3.00;;;2.70;;
14975;SDS011;7584;60.468;25.126;2023-07-13T04:58:18;4.30;;;2.28;;
14975;SDS011;7584;60.468;25.126;2023-07-13T05:00:44;3.20;;;2.45;;
14975;SDS011;7584;60.468;25.126;2023-07-13T05:03:12;5.40;;;2.50;;
14975;SDS011;7584;60.468;25.126;2023-07-13T05:05:37;4.70;;;2.50;;
14975;SDS011;7584;60.468;25.126;2023-07-13T05:08:03;4.15;;;2.90;;
14975;SDS011;7584;60.468;25.126;2023-07-13T05:10:28;2.67;;;2.42;;
14975;SDS011;7584;60.468;25.126;2023-07-13T05:12:54;2.85;;;2.33;;
14975;SDS011;7584;60.468;25.126;2023-07-13T05:15:21;4.88;;;2.40;;
14975;SDS011;7584;60.468;25.126;2023-07-13T05:17:47;3.55;;;2.30;;
14975;SDS011;7584;60.468;25.126;2023-07-13T05:20:12;3.20;;;2.70;;
14975;SDS011;7584;60.468;25.126;2023-07-13T05:22:38;7.72;;;2.47;;
14975;SDS011;7584;60.468;25.126;2023-07-13T05:25:04;4.32;;;2.50;;
14975;SDS011;7584;60.468;25.126;2023-07-13T05:27:30;2.83;;;2.55;;
14975;SDS011;7584;60.468;25.126;2023-07-13T05:29:55;2.65;;;2.20;;
14975;SDS011;7584;60.468;25.126;2023-07-13T05:32:21;2.50;;;2.30;;
14975;SDS011;7584;60.468;25.126;2023-07-13T05:34:46;3.50;;;2.40;;
14975;SDS011;7584;60.468;25.126;2023-07-13T05:37:11;6.53;;;2.53;;
14975;SDS011;7584;60.468;25.126;2023-07-13T05:39:36;2.45;;;2.25;;
14975;SDS011;7584;60.468;25.126;2023-07-13T05:42:02;2.40;;;2.20;;
14975;SDS011;7584;60.468;25.126;2023-07-13T05:44:27;2.75;;;2.55;;
14975;SDS011;7584;60.468;25.126;2023-07-13T05:46:52;3.65;;;2.40;;
14975;SDS011;7584;60.468;25.126;2023-07-13T05:49:18;2.75;;;2.13;;
14975;SDS011;7584;60.468;25.126;2023-07-13T05:51:43;2.58;;;2.25;;
14975;SDS011;7584;60.468;25.126;2023-07-13T05:54:09;4.85;;;2.47;;
14975;SDS011;7584;60.468;25.126;2023-07-13T05:56:34;3.45;;;2.55;;
14975;SDS011;7584;60.468;25.126;2023-07-13T05:58:59;2.40;;;2.20;;
14975;SDS011;7584;60.468;25.126;2023-07-13T06:01:25;4.75;;;2.22;;
14975;SDS011;7584;60.468;25.126;2023-07-13T06:03:50;3.13;;;2.30;;
14975;SDS011;7584;60.468;25.126;2023-07-13T06:06:16;2.33;;;2.13;;
14975;SDS011;7584;60.468;25.126;2023-07-13T06:08:42;2.20;;;1.98;;
14975;SDS011;7584;60.468;25.126;2023-07-13T06:13:35;2.65;;;2.00;;
14975;SDS011;7584;60.468;25.126;2023-07-13T06:16:01;3.30;;;2.13;;
14975;SDS011;7584;60.468;25.126;2023-07-13T06:18:29;2.55;;;1.90;;
14975;SDS011;7584;60.468;25.126;2023-07-13T06:20:54;6.28;;;2.33;;
14975;SDS011;7584;60.468;25.126;2023-07-13T06:23:19;3.95;;;2.42;;
14975;SDS011;7584;60.468;25.126;2023-07-13T06:25:45;2.50;;;2.05;;
14975;SDS011;7584;60.468;25.126;2023-07-13T06:28:10;5.00;;;2.00;;
14975;SDS011;7584;60.468;25.126;2023-07-13T06:30:37;5.13;;;2.42;;
14975;SDS011;7584;60.468;25.126;2023-07-13T06:33:03;2.97;;;2.22;;
14975;SDS011;7584;60.468;25.126;2023-07-13T06:35:28;6.00;;;2.42;;
14975;SDS011;7584;60.468;25.126;2023-07-13T06:37:53;7.55;;;2.25;;
14975;SDS011;7584;60.468;25.126;2023-07-13T06:40:18;3.03;;;2.38;;
14975;SDS011;7584;60.468;25.126;2023-07-13T06:42:44;4.85;;;2.25;;
14975;SDS011;7584;60.468;25.126;2023-07-13T06:45:09;3.55;;;2.20;;
14975;SDS011;7584;60.468;25.126;2023-07-13T06:47:34;4.45;;;2.15;;
14975;SDS011;7584;60.468;25.126;2023-07-13T06:50:00;7.10;;;2.17;;
14975;SDS011;7584;60.468;25.126;2023-07-13T06:52:26;3.85;;;2.00;;
14975;SDS011;7584;60.468;25.126;2023-07-13T06:54:51;2.20;;;1.90;;
14975;SDS011;7584;60.468;25.126;2023-07-13T06:57:16;5.30;;;2.00;;
14975;SDS011;7584;60.468;25.126;2023-07-13T06:59:42;3.55;;;2.17;;
14975;SDS011;7584;60.468;25.126;2023-07-13T07:02:08;4.45;;;2.20;;
14975;SDS011;7584;60.468;25.126;2023-07-13T07:04:34;2.50;;;2.10;;
14975;SDS011;7584;60.468;25.126;2023-07-13T07:06:59;4.20;;;2.25;;
14975;SDS011;7584;60.468;25.126;2023-07-13T07:09:24;4.45;;;1.95;;
14975;SDS011;7584;60.468;25.126;2023-07-13T07:11:49;2.30;;;2.00;;
14975;SDS011;7584;60.468;25.126;2023-07-13T07:14:15;8.02;;;2.35;;
14975;SDS011;7584;60.468;25.126;2023-07-13T07:16:40;2.30;;;1.83;;
14975;SDS011;7584;60.468;25.126;2023-07-13T07:19:05;3.70;;;1.80;;
14975;SDS011;7584;60.468;25.126;2023-07-13T07:21:31;2.80;;;2.22;;
14975;SDS011;7584;60.468;25.126;2023-07-13T07:23:56;3.05;;;1.67;;
14975;SDS011;7584;60.468;25.126;2023-07-13T07:26:22;2.13;;;1.90;;
14975;SDS011;7584;60.468;25.126;2023-07-13T07:28:47;1.80;;;1.70;;
14975;SDS011;7584;60.468;25.126;2023-07-13T07:31:12;3.40;;;1.70;;
14975;SDS011;7584;60.468;25.126;2023-07-13T07:33:38;3.00;;;1.85;;
14975;SDS011;7584;60.468;25.126;2023-07-13T07:36:03;1.73;;;1.52;;
14975;SDS011;7584;60.468;25.126;2023-07-13T07:38:28;2.05;;;1.52;;
14975;SDS011;7584;60.468;25.126;2023-07-13T07:40:54;3.03;;;1.65;;
14975;SDS011;7584;60.468;25.126;2023-07-13T07:43:19;1.88;;;1.75;;
14975;SDS011;7584;60.468;25.126;2023-07-13T07:45:44;2.28;;;1.95;;
14975;SDS011;7584;60.468;25.126;2023-07-13T07:48:10;1.70;;;1.42;;
14975;SDS011;7584;60.468;25.126;2023-07-13T07:50:35;3.15;;;1.60;;
14975;SDS011;7584;60.468;25.126;2023-07-13T07:53:01;2.63;;;1.63;;
14975;SDS011;7584;60.468;25.126;2023-07-13T07:55:27;2.65;;;1.70;;
14975;SDS011;7584;60.468;25.126;2023-07-13T07:57:52;2.65;;;1.60;;
14975;SDS011;7584;60.468;25.126;2023-07-13T08:00:18;2.78;;;1.52;;
14975;SDS011;7584;60.468;25.126;2023-07-13T08:02:43;1.90;;;1.50;;
14975;SDS011;7584;60.468;25.126;2023-07-13T08:05:09;2.78;;;1.55;;
14975;SDS011;7584;60.468;25.126;2023-07-13T08:07:35;2.22;;;1.70;;
14975;SDS011;7584;60.468;25.126;2023-07-13T08:10:00;1.95;;;1.58;;
14975;SDS011;7584;60.468;25.126;2023-07-13T08:12:26;2.17;;;1.65;;
14975;SDS011;7584;60.468;25.126;2023-07-13T08:14:51;2.08;;;1.60;;
14975;SDS011;7584;60.468;25.126;2023-07-13T08:17:22;2.33;;;1.80;;
14975;SDS011;7584;60.468;25.126;2023-07-13T08:19:48;6.63;;;1.80;;
14975;SDS011;7584;60.468;25.126;2023-07-13T08:22:13;1.85;;;1.75;;
14975;SDS011;7584;60.468;25.126;2023-07-13T08:24:38;1.70;;;1.60;;
14975;SDS011;7584;60.468;25.126;2023-07-13T08:27:04;2.65;;;1.58;;
14975;SDS011;7584;60.468;25.126;2023-07-13T08:29:29;3.53;;;1.85;;
14975;SDS011;7584;60.468;25.126;2023-07-13T08:31:57;2.70;;;1.70;;
14975;SDS011;7584;60.468;25.126;2023-07-13T08:34:22;1.88;;;1.60;;
14975;SDS011;7584;60.468;25.126;2023-07-13T08:36:48;1.65;;;1.40;;
14975;SDS011;7584;60.468;25.126;2023-07-13T08:39:13;2.30;;;1.35;;
14975;SDS011;7584;60.468;25.126;2023-07-13T08:41:38;2.38;;;1.50;;
14975;SDS011;7584;60.468;25.126;2023-07-13T08:44:04;1.50;;;1.40;;
14975;SDS011;7584;60.468;25.126;2023-07-13T08:48:59;3.15;;;1.52;;
14975;SDS011;7584;60.468;25.126;2023-07-13T08:51:31;4.32;;;1.52;;
14975;SDS011;7584;60.468;25.126;2023-07-13T08:54:00;1.85;;;1.65;;
14975;SDS011;7584;60.468;25.126;2023-07-13T08:56:27;1.98;;;1.50;;
14975;SDS011;7584;60.468;25.126;2023-07-13T08:58:54;3.20;;;1.60;;
14975;SDS011;7584;60.468;25.126;2023-07-13T09:04:29;1.50;;;1.35;;
14975;SDS011;7584;60.468;25.126;2023-07-13T09:06:35;1.83;;;1.60;;
14975;SDS011;7584;60.468;25.126;2023-07-13T09:09:10;2.60;;;1.58;;
14975;SDS011;7584;60.468;25.126;2023-07-13T09:12:07;3.63;;;1.50;;
14975;SDS011;7584;60.468;25.126;2023-07-13T09:14:34;1.70;;;1.33;;
14975;SDS011;7584;60.468;25.126;2023-07-13T09:17:10;3.55;;;1.63;;
14975;SDS011;7584;60.468;25.126;2023-07-13T09:19:36;1.60;;;1.50;;
14975;SDS011;7584;60.468;25.126;2023-07-13T09:22:03;1.95;;;1.45;;
14975;SDS011;7584;60.468;25.126;2023-07-13T09:26:57;2.72;;;1.55;;
14975;SDS011;7584;60.468;25.126;2023-07-13T09:29:30;2.40;;;1.60;;
14975;SDS011;7584;60.468;25.126;2023-07-13T09:31:58;1.88;;;1.48;;
14975;SDS011;7584;60.468;25.126;2023-07-13T09:34:26;2.15;;;1.50;;
14975;SDS011;7584;60.468;25.126;2023-07-13T09:36:51;2.47;;;1.15;;
14975;SDS011;7584;60.468;25.126;2023-07-13T09:41:53;3.63;;;1.83;;
14975;SDS011;7584;60.468;25.126;2023-07-13T09:47:01;4.25;;;1.58;;
14975;SDS011;7584;60.468;25.126;2023-07-13T09:49:30;4.70;;;1.60;;
14975;SDS011;7584;60.468;25.126;2023-07-13T09:51:59;1.58;;;1.40;;
14975;SDS011;7584;60.468;25.126;2023-07-13T09:54:26;2.58;;;1.40;;
14975;SDS011;7584;60.468;25.126;2023-07-13T09:56:55;2.55;;;1.65;;
14975;SDS011;7584;60.468;25.126;2023-07-13T09:59:21;1.90;;;1.48;;
14975;SDS011;7584;60.468;25.126;2023-07-13T10:01:49;2.05;;;1.60;;
14975;SDS011;7584;60.468;25.126;2023-07-13T10:04:16;2.17;;;1.40;;
14975;SDS011;7584;60.468;25.126;2023-07-13T10:06:43;1.67;;;1.58;;
14975;SDS011;7584;60.468;25.126;2023-07-13T10:09:09;2.53;;;1.70;;
14975;SDS011;7584;60.468;25.126;2023-07-13T10:11:35;2.63;;;1.38;;
14975;SDS011;7584;60.468;25.126;2023-07-13T10:14:12;3.30;;;1.50;;
14975;SDS011;7584;60.468;25.126;2023-07-13T10:16:38;7.38;;;1.58;;
14975;SDS011;7584;60.468;25.126;2023-07-13T10:19:15;2.90;;;1.55;;
14975;SDS011;7584;60.468;25.126;2023-07-13T10:24:18;1.92;;;1.20;;
14975;SDS011;7584;60.468;25.126;2023-07-13T10:26:48;3.35;;;1.73;;
14975;SDS011;7584;60.468;25.126;2023-07-13T10:29:14;2.33;;;1.35;;
14975;SDS011;7584;60.468;25.126;2023-07-13T10:31:40;2.38;;;1.65;;
14975;SDS011;7584;60.468;25.126;2023-07-13T10:34:09;3.17;;;1.63;;
14975;SDS011;7584;60.468;25.126;2023-07-13T10:36:39;1.95;;;1.65;;
14975;SDS011;7584;60.468;25.126;2023-07-13T10:39:05;3.40;;;1.63;;
14975;SDS011;7584;60.468;25.126;2023-07-13T10:41:33;1.88;;;1.42;;
14975;SDS011;7584;60.468;25.126;2023-07-13T10:44:00;1.77;;;1.42;;
14975;SDS011;7584;60.468;25.126;2023-07-13T10:46:26;2.47;;;1.67;;
14975;SDS011;7584;60.468;25.126;2023-07-13T10:48:57;3.03;;;2.00;;
14975;SDS011;7584;60.468;25.126;2023-07-13T10:51:23;2.28;;;1.20;;
14975;SDS011;7584;60.468;25.126;2023-07-13T10:56:34;1.70;;;1.52;;
14975;SDS011;7584;60.468;25.126;2023-07-13T10:59:14;3.88;;;1.70;;
14975;SDS011;7584;60.468;25.126;2023-07-13T11:01:54;3.78;;;1.48;;
14975;SDS011;7584;60.468;25.126;2023-07-13T11:04:21;2.22;;;1.50;;
14975;SDS011;7584;60.468;25.126;2023-07-13T11:06:47;2.42;;;1.58;;
14975;SDS011;7584;60.468;25.126;2023-07-13T11:11:58;2.50;;;1.80;;
14975;SDS011;7584;60.468;25.126;2023-07-13T11:14:37;1.90;;;1.48;;
14975;SDS011;7584;60.468;25.126;2023-07-13T11:17:47;1.85;;;1.60;;
14975;SDS011;7584;60.468;25.126;2023-07-13T11:19:52;2.00;;;1.35;;
14975;SDS011;7584;60.468;25.126;2023-07-13T11:22:21;2.63;;;1.55;;
14975;SDS011;7584;60.468;25.126;2023-07-13T11:24:48;2.67;;;1.65;;
14975;SDS011;7584;60.468;25.126;2023-07-13T11:27:27;2.08;;;1.70;;
14975;SDS011;7584;60.468;25.126;2023-07-13T11:30:07;3.75;;;1.73;;
14975;SDS011;7584;60.468;25.126;2023-07-13T11:32:33;1.63;;;1.52;;
14975;SDS011;7584;60.468;25.126;2023-07-13T11:34:58;1.88;;;1.45;;
14975;SDS011;7584;60.468;25.126;2023-07-13T11:37:24;1.85;;;1.65;;
14975;SDS011;7584;60.468;25.126;2023-07-13T11:39:50;2.45;;;1.40;;
14975;SDS011;7584;60.468;25.126;2023-07-13T11:42:17;3.05;;;1.50;;
14975;SDS011;7584;60.468;25.126;2023-07-13T11:44:43;2.47;;;1.88;;
14975;SDS011;7584;60.468;25.126;2023-07-13T11:47:10;2.15;;;1.80;;
14975;SDS011;7584;60.468;25.126;2023-07-13T11:49:43;2.80;;;1.60;;
14975;SDS011;7584;60.468;25.126;2023-07-13T11:52:13;2.00;;;1.77;;
14975;SDS011;7584;60.468;25.126;2023-07-13T11:54:46;4.63;;;1.77;;
14975;SDS011;7584;60.468;25.126;2023-07-13T11:57:23;1.92;;;1.70;;
14975;SDS011;7584;60.468;25.126;2023-07-13T11:59:49;2.45;;;1.80;;
14975;SDS011;7584;60.468;25.126;2023-07-13T12:02:29;1.77;;;1.50;;
14975;SDS011;7584;60.468;25.126;2023-07-13T12:04:55;1.83;;;1.73;;
14975;SDS011;7584;60.468;25.126;2023-07-13T12:07:22;3.03;;;1.95;;
14975;SDS011;7584;60.468;25.126;2023-07-13T12:09:47;1.80;;;1.70;;
14975;SDS011;7584;60.468;25.126;2023-07-13T12:12:20;3.13;;;1.45;;
14975;SDS011;7584;60.468;25.126;2023-07-13T12:14:46;2.03;;;1.58;;
14975;SDS011;7584;60.468;25.126;2023-07-13T12:17:16;1.98;;;1.60;;
14975;SDS011;7584;60.468;25.126;2023-07-13T12:19:43;2.42;;;1.70;;
14975;SDS011;7584;60.468;25.126;2023-07-13T12:22:08;2.35;;;1.52;;
14975;SDS011;7584;60.468;25.126;2023-07-13T12:24:35;2.10;;;1.80;;
14975;SDS011;7584;60.468;25.126;2023-07-13T12:27:02;1.52;;;1.42;;
14975;SDS011;7584;60.468;25.126;2023-07-13T12:29:27;4.97;;;1.75;;
14975;SDS011;7584;60.468;25.126;2023-07-13T12:31:52;2.08;;;1.80;;
14975;SDS011;7584;60.468;25.126;2023-07-13T12:34:19;2.88;;;1.65;;
14975;SDS011;7584;60.468;25.126;2023-07-13T12:36:51;4.88;;;1.75;;
14975;SDS011;7584;60.468;25.126;2023-07-13T12:41:43;2.63;;;1.85;;
14975;SDS011;7584;60.468;25.126;2023-07-13T12:44:29;2.08;;;1.65;;
14975;SDS011;7584;60.468;25.126;2023-07-13T12:46:56;3.00;;;1.48;;
14975;SDS011;7584;60.468;25.126;2023-07-13T12:49:23;3.08;;;1.63;;
14975;SDS011;7584;60.468;25.126;2023-07-13T12:51:56;1.45;;;1.35;;
14975;SDS011;7584;60.468;25.126;2023-07-13T12:54:22;3.25;;;1.40;;
14975;SDS011;7584;60.468;25.126;2023-07-13T12:56:50;2.60;;;1.40;;
14975;SDS011;7584;60.468;25.126;2023-07-13T12:59:18;4.05;;;1.70;;
14975;SDS011;7584;60.468;25.126;2023-07-13T13:01:45;2.65;;;1.45;;
14975;SDS011;7584;60.468;25.126;2023-07-13T13:04:11;5.03;;;1.88;;
14975;SDS011;7584;60.468;25.126;2023-07-13T13:06:38;1.90;;;1.65;;
14975;SDS011;7584;60.468;25.126;2023-07-13T13:09:03;2.75;;;1.50;;
14975;SDS011;7584;60.468;25.126;2023-07-13T13:11:34;2.92;;;1.73;;
14975;SDS011;7584;60.468;25.126;2023-07-13T13:13:59;3.97;;;1.63;;
14975;SDS011;7584;60.468;25.126;2023-07-13T13:18:54;1.67;;;1.52;;
14975;SDS011;7584;60.468;25.126;2023-07-13T13:21:22;3.75;;;1.52;;
14975;SDS011;7584;60.468;25.126;2023-07-13T13:23:48;4.32;;;1.83;;
14975;SDS011;7584;60.468;25.126;2023-07-13T13:26:15;2.22;;;1.58;;
14975;SDS011;7584;60.468;25.126;2023-07-13T13:28:40;1.65;;;1.50;;
14975;SDS011;7584;60.468;25.126;2023-07-13T13:31:07;3.92;;;1.58;;
14975;SDS011;7584;60.468;25.126;2023-07-13T13:33:32;3.50;;;1.38;;
14975;SDS011;7584;60.468;25.126;2023-07-13T13:35:58;2.08;;;1.70;;
14975;SDS011;7584;60.468;25.126;2023-07-13T13:38:25;1.98;;;1.40;;
14975;SDS011;7584;60.468;25.126;2023-07-13T13:40:50;4.00;;;1.85;;
14975;SDS011;7584;60.468;25.126;2023-07-13T13:43:26;2.13;;;1.50;;
14975;SDS011;7584;60.468;25.126;2023-07-13T13:45:52;2.42;;;1.60;;
14975;SDS011;7584;60.468;25.126;2023-07-13T13:48:18;1.40;;;1.30;;
14975;SDS011;7584;60.468;25.126;2023-07-13T13:50:44;3.28;;;1.67;;
14975;SDS011;7584;60.468;25.126;2023-07-13T13:53:10;2.00;;;1.30;;
14975;SDS011;7584;60.468;25.126;2023-07-13T13:55:35;2.13;;;1.60;;
14975;SDS011;7584;60.468;25.126;2023-07-13T13:58:01;2.92;;;1.60;;
14975;SDS011;7584;60.468;25.126;2023-07-13T14:00:26;2.78;;;1.23;;
14975;SDS011;7584;60.468;25.126;2023-07-13T14:02:51;4.75;;;1.60;;
14975;SDS011;7584;60.468;25.126;2023-07-13T14:05:20;1.83;;;1.30;;
14975;SDS011;7584;60.468;25.126;2023-07-13T14:07:46;3.22;;;1.67;;
14975;SDS011;7584;60.468;25.126;2023-07-13T14:10:16;4.60;;;1.75;;
14975;SDS011;7584;60.468;25.126;2023-07-13T14:12:44;2.65;;;1.60;;
14975;SDS011;7584;60.468;25.126;2023-07-13T14:15:23;4.03;;;1.40;;
14975;SDS011;7584;60.468;25.126;2023-07-13T14:17:48;2.47;;;1.27;;
14975;SDS011;7584;60.468;25.126;2023-07-13T14:20:15;3.67;;;1.65;;
14975;SDS011;7584;60.468;25.126;2023-07-13T14:22:41;3.95;;;1.45;;
14975;SDS011;7584;60.468;25.126;2023-07-13T14:25:10;2.35;;;1.50;;
14975;SDS011;7584;60.468;25.126;2023-07-13T14:27:36;3.88;;;1.80;;
14975;SDS011;7584;60.468;25.126;2023-07-13T14:30:01;4.07;;;1.70;;
14975;SDS011;7584;60.468;25.126;2023-07-13T14:32:26;4.03;;;1.60;;
14975;SDS011;7584;60.468;25.126;2023-07-13T14:34:52;4.60;;;1.65;;
14975;SDS011;7584;60.468;25.126;2023-07-13T14:37:23;9.15;;;1.70;;
14975;SDS011;7584;60.468;25.126;2023-07-13T14:39:49;2.53;;;1.38;;
14975;SDS011;7584;60.468;25.126;2023-07-13T14:42:15;2.00;;;1.20;;
14975;SDS011;7584;60.468;25.126;2023-07-13T14:44:40;6.00;;;1.27;;
14975;SDS011;7584;60.468;25.126;2023-07-13T14:47:05;1.83;;;1.50;;
14975;SDS011;7584;60.468;25.126;2023-07-13T14:51:58;1.70;;;1.38;;
14975;SDS011;7584;60.468;25.126;2023-07-13T14:54:23;4.38;;;1.50;;
14975;SDS011;7584;60.468;25.126;2023-07-13T14:56:49;3.92;;;1.80;;
14975;SDS011;7584;60.468;25.126;2023-07-13T14:59:15;3.00;;;1.80;;
14975;SDS011;7584;60.468;25.126;2023-07-13T15:01:41;1.50;;;1.40;;
14975;SDS011;7584;60.468;25.126;2023-07-13T15:04:06;3.35;;;1.48;;
14975;SDS011;7584;60.468;25.126;2023-07-13T15:06:35;4.82;;;1.50;;
14975;SDS011;7584;60.468;25.126;2023-07-13T15:09:17;2.55;;;1.70;;
14975;SDS011;7584;60.468;25.126;2023-07-13T15:11:43;2.80;;;1.70;;
14975;SDS011;7584;60.468;25.126;2023-07-13T15:14:09;4.38;;;1.58;;
14975;SDS011;7584;60.468;25.126;2023-07-13T15:16:34;2.15;;;1.42;;
14975;SDS011;7584;60.468;25.126;2023-07-13T15:18:59;5.13;;;1.80;;